Time;durP1;ratioP1;P1;durP2;ratioP2;P2;SDS_P1;SDS_P2;PMS_P1;PMS_P2;Temp;Humidity;BMP_temperature;BMP_pressure;BME280_temperature;BME280_humidity;BME280_pressure;Samples;Min_cycle;Max_cycle;Signal;HPM_P1;HPM_P2
2023/09/24 00:01:16;;;;;;;3.50;2.00;;;13.80;99.90;;;;;;5106806;28;20503;-68
2023/09/24 00:03:43;;;;;;;3.85;2.15;;;13.80;99.90;;;;;;5106306;28;20032;-68
2023/09/24 00:06:10;;;;;;;3.28;2.00;;;13.80;99.90;;;;;;5103970;28;20032;-68
2023/09/24 00:08:36;;;;;;;2.75;1.77;;;13.80;99.90;;;;;;5101497;27;20118;-68
2023/09/24 00:11:02;;;;;;;1.92;1.70;;;13.80;99.90;;;;;;5106651;28;20498;-68
2023/09/24 00:13:34;;;;;;;3.65;1.95;;;13.70;99.90;;;;;;5102643;28;20035;-68
2023/09/24 00:16:06;;;;;;;2.70;1.80;;;13.70;99.90;;;;;;5117985;27;20073;-68
2023/09/24 00:18:36;;;;;;;3.20;2.05;;;13.70;99.90;;;;;;5102097;28;20023;-68
2023/09/24 00:21:03;;;;;;;1.95;1.70;;;13.70;99.90;;;;;;5103731;28;20034;-68
2023/09/24 00:23:28;;;;;;;4.85;1.90;;;13.70;99.90;;;;;;5106327;28;20028;-68
2023/09/24 00:25:58;;;;;;;3.33;1.88;;;13.70;99.90;;;;;;5106363;28;20039;-68
2023/09/24 00:28:24;;;;;;;5.82;2.50;;;13.70;99.90;;;;;;5103939;28;20570;-68
2023/09/24 00:30:55;;;;;;;4.30;2.15;;;13.60;99.90;;;;;;5104812;28;20073;-68
2023/09/24 00:33:21;;;;;;;4.18;2.20;;;13.60;99.90;;;;;;5106208;28;20040;-68
2023/09/24 00:35:48;;;;;;;2.80;2.25;;;13.60;99.90;;;;;;5106289;28;20476;-68
2023/09/24 00:38:13;;;;;;;3.38;2.00;;;13.60;99.90;;;;;;5101052;28;20038;-68
2023/09/24 00:40:39;;;;;;;4.72;2.13;;;13.50;99.90;;;;;;5105770;28;20138;-68
2023/09/24 00:43:33;;;;;;;5.78;2.22;;;13.50;99.90;;;;;;5097073;28;20019;-68
2023/09/24 00:46:03;;;;;;;4.82;2.60;;;13.50;99.90;;;;;;5098063;28;20031;-67
2023/09/24 00:48:30;;;;;;;2.72;2.17;;;13.50;99.90;;;;;;5104159;28;20055;-68
2023/09/24 00:51:04;;;;;;;3.63;2.17;;;13.50;99.90;;;;;;5099527;28;20077;-68
2023/09/24 00:53:31;;;;;;;3.85;2.63;;;13.50;99.90;;;;;;5097331;28;20035;-67
2023/09/24 00:55:57;;;;;;;3.85;2.35;;;13.50;99.90;;;;;;5103675;28;20042;-68
2023/09/24 00:58:25;;;;;;;3.75;2.30;;;13.40;99.90;;;;;;5105841;28;20111;-68
2023/09/24 01:00:57;;;;;;;2.42;2.05;;;13.50;99.90;;;;;;5099266;28;20091;-68
2023/09/24 01:03:23;;;;;;;3.58;2.42;;;13.40;99.90;;;;;;5101961;28;20051;-68
2023/09/24 01:05:53;;;;;;;3.55;2.42;;;13.40;99.90;;;;;;5101520;28;20059;-68
2023/09/24 01:08:23;;;;;;;4.70;2.17;;;13.40;99.90;;;;;;5104161;28;20035;-68
2023/09/24 01:10:50;;;;;;;4.32;2.50;;;13.40;99.90;;;;;;5104104;28;20476;-68
2023/09/24 01:13:20;;;;;;;4.15;2.53;;;13.40;99.90;;;;;;5104101;28;20024;-68
2023/09/24 01:15:48;;;;;;;6.18;2.10;;;13.40;99.90;;;;;;5104013;28;20031;-68
2023/09/24 01:18:17;;;;;;;5.25;2.35;;;13.40;99.90;;;;;;5105248;28;20629;-68
2023/09/24 01:20:43;;;;;;;6.28;2.65;;;13.50;99.90;;;;;;5104022;28;20038;-67
2023/09/24 01:23:11;;;;;;;2.90;2.13;;;13.50;99.90;;;;;;5103385;28;20034;-68
2023/09/24 01:25:37;;;;;;;3.25;2.95;;;13.50;99.90;;;;;;5105539;28;20767;-68
2023/09/24 01:28:04;;;;;;;3.42;2.33;;;13.60;99.90;;;;;;5101125;28;20027;-68
2023/09/24 01:30:30;;;;;;;4.28;2.58;;;13.50;99.90;;;;;;5102335;28;20032;-68
2023/09/24 01:32:57;;;;;;;3.78;2.55;;;13.60;99.90;;;;;;5103552;28;20709;-68
2023/09/24 01:35:27;;;;;;;3.13;2.25;;;13.60;99.90;;;;;;5103745;28;20437;-68
2023/09/24 01:38:04;;;;;;;3.30;2.40;;;13.60;99.90;;;;;;5099781;28;20757;-68
2023/09/24 01:40:33;;;;;;;3.58;2.30;;;13.70;99.90;;;;;;5104570;28;20027;-68
2023/09/24 01:43:01;;;;;;;3.47;1.95;;;13.70;99.90;;;;;;5116584;28;20027;-68
2023/09/24 01:45:30;;;;;;;3.05;2.10;;;13.80;99.90;;;;;;5103973;28;20114;-68
2023/09/24 01:47:56;;;;;;;4.63;2.50;;;13.80;99.90;;;;;;5105290;28;20081;-68
2023/09/24 01:50:32;;;;;;;1.80;1.70;;;13.80;99.90;;;;;;5105430;28;20031;-68
2023/09/24 01:52:58;;;;;;;4.63;2.38;;;13.80;99.90;;;;;;5092888;28;20506;-68
2023/09/24 01:55:25;;;;;;;2.80;2.40;;;13.80;99.90;;;;;;5104785;28;20039;-68
2023/09/24 01:57:53;;;;;;;3.97;2.70;;;13.80;99.90;;;;;;5104783;28;20043;-68
2023/09/24 02:00:25;;;;;;;5.05;2.55;;;13.80;99.90;;;;;;5103419;28;20046;-68
2023/09/24 02:02:57;;;;;;;5.78;2.22;;;13.70;99.90;;;;;;5103111;28;20027;-68
2023/09/24 02:05:23;;;;;;;6.70;2.28;;;13.70;99.90;;;;;;5101908;28;20024;-68
2023/09/24 02:07:50;;;;;;;3.90;2.67;;;13.70;99.90;;;;;;5103804;28;20028;-68
2023/09/24 02:10:17;;;;;;;2.45;2.10;;;13.70;99.90;;;;;;5101255;28;20672;-67
2023/09/24 02:12:45;;;;;;;4.90;2.45;;;13.70;99.90;;;;;;5117058;28;20122;-68
2023/09/24 02:15:11;;;;;;;6.20;2.05;;;13.70;99.90;;;;;;5102185;28;20028;-68
2023/09/24 02:17:41;;;;;;;3.55;2.05;;;13.60;99.90;;;;;;5102943;28;20040;-68
2023/09/24 02:20:18;;;;;;;3.40;1.85;;;13.70;99.90;;;;;;5104542;28;20043;-68
2023/09/24 02:22:51;;;;;;;3.13;2.03;;;13.70;99.90;;;;;;5102971;28;20490;-68
2023/09/24 02:25:19;;;;;;;2.80;2.10;;;13.70;99.90;;;;;;5099283;28;20027;-68
2023/09/24 02:27:45;;;;;;;1.83;1.70;;;13.70;99.90;;;;;;5102354;28;20118;-68
2023/09/24 02:30:12;;;;;;;3.13;1.95;;;13.70;99.90;;;;;;5104728;28;20028;-68
2023/09/24 02:32:38;;;;;;;3.28;1.80;;;13.70;99.90;;;;;;5103350;28;20084;-68
2023/09/24 02:35:05;;;;;;;3.47;2.08;;;13.70;99.90;;;;;;5104933;28;20421;-68
2023/09/24 02:37:30;;;;;;;2.38;2.00;;;13.80;99.90;;;;;;5108466;28;20031;-68
2023/09/24 02:39:57;;;;;;;2.97;2.15;;;13.80;99.90;;;;;;5108713;28;20024;-68
2023/09/24 02:42:25;;;;;;;3.20;2.05;;;13.80;99.90;;;;;;5104500;28;20047;-68
2023/09/24 02:44:50;;;;;;;2.70;2.17;;;13.80;99.90;;;;;;5106625;28;20080;-68
2023/09/24 02:47:16;;;;;;;4.38;2.72;;;13.90;99.90;;;;;;5105721;28;20027;-68
2023/09/24 02:49:43;;;;;;;2.25;2.05;;;13.90;99.90;;;;;;5106347;28;20031;-68
2023/09/24 02:52:09;;;;;;;2.53;2.10;;;13.90;99.90;;;;;;5108106;28;20039;-68
2023/09/24 02:54:34;;;;;;;3.45;2.35;;;13.90;99.90;;;;;;5106187;28;20047;-68
2023/09/24 02:57:00;;;;;;;2.05;1.90;;;13.90;99.90;;;;;;5107891;28;20035;-68
2023/09/24 02:59:26;;;;;;;3.20;2.20;;;13.90;99.90;;;;;;5102277;28;20062;-68
2023/09/24 03:01:52;;;;;;;3.72;2.20;;;13.90;99.90;;;;;;5106646;28;20133;-68
2023/09/24 03:04:18;;;;;;;4.10;2.03;;;14.00;99.90;;;;;;5105576;28;20023;-68
2023/09/24 03:06:48;;;;;;;1.95;1.70;;;14.00;99.90;;;;;;5096485;28;20028;-68
2023/09/24 03:09:15;;;;;;;3.78;1.88;;;14.00;99.90;;;;;;5106883;28;20495;-68
2023/09/24 03:11:40;;;;;;;3.40;1.88;;;14.10;99.90;;;;;;5104911;28;20035;-68
2023/09/24 03:14:06;;;;;;;2.80;2.10;;;14.20;99.90;;;;;;5104432;28;20027;-68
2023/09/24 03:16:33;;;;;;;5.20;2.58;;;14.20;99.90;;;;;;5106132;28;20472;-68
2023/09/24 03:19:02;;;;;;;3.65;2.17;;;14.30;99.90;;;;;;5107631;28;20035;-68
2023/09/24 03:21:27;;;;;;;3.00;2.47;;;14.30;99.90;;;;;;5103645;28;20051;-68
2023/09/24 03:23:53;;;;;;;4.70;2.28;;;14.40;99.90;;;;;;5104684;28;20031;-67
2023/09/24 03:26:20;;;;;;;2.80;1.95;;;14.50;99.90;;;;;;5102326;28;20035;-68
2023/09/24 03:28:47;;;;;;;4.22;2.88;;;14.50;99.90;;;;;;5104595;28;20669;-68
2023/09/24 03:31:15;;;;;;;2.45;1.92;;;14.60;99.90;;;;;;5103554;28;20028;-68
2023/09/24 03:33:42;;;;;;;3.88;2.67;;;14.60;99.90;;;;;;5105820;28;20039;-68
2023/09/24 03:36:08;;;;;;;1.98;1.77;;;14.70;99.90;;;;;;5105907;28;20028;-68
2023/09/24 03:38:35;;;;;;;3.40;2.28;;;14.70;99.90;;;;;;5105577;28;20027;-68
2023/09/24 03:41:03;;;;;;;2.33;2.13;;;14.80;99.90;;;;;;5105916;28;20030;-68
2023/09/24 03:43:30;;;;;;;3.63;1.55;;;14.80;99.90;;;;;;5100793;28;20062;-68
2023/09/24 03:45:57;;;;;;;1.90;1.70;;;14.80;99.90;;;;;;5105098;28;20047;-68
2023/09/24 03:48:23;;;;;;;2.33;1.98;;;14.90;99.90;;;;;;5106945;28;20062;-68
2023/09/24 03:50:50;;;;;;;2.38;1.83;;;14.90;99.90;;;;;;5107112;27;20035;-68
2023/09/24 03:53:18;;;;;;;3.75;2.20;;;14.90;99.90;;;;;;5103888;28;20035;-68
2023/09/24 03:55:45;;;;;;;2.50;2.03;;;14.90;99.90;;;;;;5105665;28;20028;-68
2023/09/24 03:58:12;;;;;;;3.97;2.20;;;15.00;99.90;;;;;;5102589;28;20039;-68
2023/09/24 04:00:39;;;;;;;4.93;2.00;;;15.00;99.90;;;;;;5106718;28;20775;-68
2023/09/24 04:03:05;;;;;;;3.13;2.15;;;15.00;99.90;;;;;;5106732;28;20070;-68
2023/09/24 04:05:33;;;;;;;2.80;2.15;;;15.10;99.90;;;;;;5106824;28;20044;-68
2023/09/24 04:08:01;;;;;;;6.65;2.42;;;15.10;99.90;;;;;;5111512;27;20058;-68
2023/09/24 04:10:28;;;;;;;5.03;2.83;;;15.10;99.90;;;;;;5105262;28;20023;-69
2023/09/24 04:12:55;;;;;;;4.50;2.60;;;15.20;99.90;;;;;;5104891;28;20794;-68
2023/09/24 04:15:27;;;;;;;3.83;2.30;;;15.20;99.90;;;;;;5106441;28;20083;-67
2023/09/24 04:17:55;;;;;;;3.13;2.13;;;15.20;99.90;;;;;;5104266;28;21471;-68
2023/09/24 04:20:21;;;;;;;3.13;2.42;;;15.30;99.90;;;;;;5106068;28;20035;-68
2023/09/24 04:22:47;;;;;;;2.40;2.20;;;15.30;99.90;;;;;;5105992;28;20126;-68
2023/09/24 04:25:21;;;;;;;2.72;2.45;;;15.30;99.90;;;;;;5106352;28;20034;-68
2023/09/24 04:27:50;;;;;;;3.53;2.22;;;15.40;99.90;;;;;;5105077;28;20061;-68
2023/09/24 04:30:17;;;;;;;2.58;2.38;;;15.40;99.90;;;;;;5106277;28;20031;-68
2023/09/24 04:32:51;;;;;;;4.65;2.33;;;15.40;99.90;;;;;;5106265;28;20403;-68
2023/09/24 04:35:19;;;;;;;4.85;2.78;;;15.40;99.90;;;;;;5106311;28;20122;-69
2023/09/24 04:37:48;;;;;;;4.28;2.88;;;15.40;99.90;;;;;;5106254;28;20035;-68
2023/09/24 04:40:14;;;;;;;5.05;2.95;;;15.50;99.90;;;;;;5104698;28;20053;-69
2023/09/24 04:42:41;;;;;;;4.50;2.78;;;15.50;99.90;;;;;;5105826;28;20494;-68
2023/09/24 04:45:10;;;;;;;3.47;2.60;;;15.50;99.90;;;;;;5105919;28;20027;-68
2023/09/24 04:47:39;;;;;;;3.30;2.55;;;15.50;99.90;;;;;;5104423;28;20028;-68
2023/09/24 04:50:07;;;;;;;3.35;2.30;;;15.50;99.90;;;;;;5105615;28;20051;-69
2023/09/24 04:52:33;;;;;;;4.78;2.70;;;15.50;99.90;;;;;;5103334;28;20034;-68
2023/09/24 04:55:00;;;;;;;3.88;3.10;;;15.50;99.90;;;;;;5100899;28;20483;-68
2023/09/24 04:57:26;;;;;;;4.07;2.88;;;15.50;99.90;;;;;;5101351;28;20023;-68
2023/09/24 04:59:53;;;;;;;4.72;3.92;;;15.60;99.90;;;;;;5095933;28;20046;-69
2023/09/24 05:02:21;;;;;;;5.88;3.45;;;15.60;99.90;;;;;;5105448;28;20034;-68
2023/09/24 05:04:48;;;;;;;6.30;4.45;;;15.60;99.90;;;;;;5105449;28;20035;-68
2023/09/24 05:07:14;;;;;;;7.60;4.32;;;15.60;99.90;;;;;;5103851;28;20023;-68
2023/09/24 05:09:40;;;;;;;7.15;5.15;;;15.70;99.90;;;;;;5097925;28;20831;-68
2023/09/24 05:12:05;;;;;;;6.13;4.55;;;15.60;99.90;;;;;;5103615;28;20496;-68
2023/09/24 05:14:31;;;;;;;8.18;4.38;;;15.70;99.90;;;;;;5105456;28;20543;-68
2023/09/24 05:16:58;;;;;;;8.30;4.88;;;15.70;99.90;;;;;;5100817;28;20032;-69
2023/09/24 05:19:24;;;;;;;4.30;3.70;;;15.70;99.90;;;;;;5104584;28;20032;-69
2023/09/24 05:21:50;;;;;;;5.15;4.55;;;15.70;99.90;;;;;;5103500;28;20595;-68
2023/09/24 05:24:15;;;;;;;6.50;4.07;;;15.70;99.90;;;;;;5104847;28;20039;-69
2023/09/24 05:26:41;;;;;;;5.13;4.38;;;15.70;99.90;;;;;;5101259;28;20027;-68
2023/09/24 05:29:07;;;;;;;7.57;4.78;;;15.70;99.90;;;;;;5103513;28;20076;-69
2023/09/24 05:31:32;;;;;;;7.05;4.30;;;15.80;99.90;;;;;;5105118;28;20032;-69
2023/09/24 05:33:58;;;;;;;5.95;3.92;;;15.80;99.90;;;;;;5101041;28;20030;-68
2023/09/24 05:36:24;;;;;;;7.97;4.75;;;15.80;99.90;;;;;;5104784;28;20028;-68
2023/09/24 05:38:50;;;;;;;7.22;4.75;;;15.80;99.90;;;;;;5102779;28;20055;-68
2023/09/24 05:41:16;;;;;;;8.32;5.80;;;15.90;99.90;;;;;;5105290;28;20117;-68
2023/09/24 05:43:44;;;;;;;10.57;5.93;;;15.90;99.90;;;;;;5104920;28;20051;-68
2023/09/24 05:46:17;;;;;;;7.07;5.32;;;15.80;99.90;;;;;;5101483;28;20148;-68
2023/09/24 05:48:44;;;;;;;6.65;5.25;;;15.90;99.90;;;;;;5103273;28;20101;-69
2023/09/24 05:51:10;;;;;;;7.70;5.47;;;15.90;99.90;;;;;;5101087;28;20070;-68
2023/09/24 05:53:36;;;;;;;9.63;5.22;;;15.90;99.90;;;;;;5104930;28;20071;-68
2023/09/24 05:56:03;;;;;;;7.97;5.70;;;15.90;99.90;;;;;;5104901;28;20058;-68
2023/09/24 05:58:29;;;;;;;8.18;5.93;;;15.90;99.90;;;;;;5104731;28;20142;-68
2023/09/24 06:00:56;;;;;;;6.25;4.82;;;16.00;99.90;;;;;;5105250;28;20146;-68
2023/09/24 06:03:22;;;;;;;8.23;4.70;;;16.00;99.90;;;;;;5104194;28;20031;-68
2023/09/24 06:05:48;;;;;;;9.13;5.13;;;15.90;99.90;;;;;;5105005;28;20035;-68
2023/09/24 06:08:14;;;;;;;6.00;4.95;;;16.00;99.90;;;;;;5102556;28;20032;-68
2023/09/24 06:10:44;;;;;;;7.70;5.13;;;16.00;99.90;;;;;;5106879;28;20501;-68
2023/09/24 06:13:12;;;;;;;7.28;4.72;;;16.00;99.90;;;;;;5107181;28;20108;-68
2023/09/24 06:15:37;;;;;;;10.73;5.18;;;16.10;99.90;;;;;;5108961;27;20066;-68
2023/09/24 06:18:03;;;;;;;7.50;4.45;;;16.10;99.90;;;;;;5107093;28;20482;-69
2023/09/24 06:20:29;;;;;;;7.50;4.68;;;16.10;99.90;;;;;;5103988;28;20849;-68
2023/09/24 06:22:57;;;;;;;5.40;4.22;;;16.10;99.90;;;;;;5106279;28;20027;-68
2023/09/24 06:25:23;;;;;;;8.13;4.80;;;16.10;99.90;;;;;;5109209;28;20039;-68
2023/09/24 06:27:49;;;;;;;4.75;3.97;;;16.20;99.90;;;;;;5102710;28;20035;-69
2023/09/24 06:30:15;;;;;;;5.18;3.75;;;16.20;99.90;;;;;;5108977;28;20024;-68
2023/09/24 06:32:40;;;;;;;4.72;4.10;;;16.20;99.90;;;;;;5108081;28;20032;-68
2023/09/24 06:35:07;;;;;;;6.43;3.85;;;16.30;99.90;;;;;;5105568;28;20066;-68
2023/09/24 06:37:33;;;;;;;6.70;4.50;;;16.30;99.90;;;;;;5104361;28;20107;-68
2023/09/24 06:39:59;;;;;;;8.27;4.53;;;16.40;99.90;;;;;;5105842;28;20460;-68
2023/09/24 06:42:24;;;;;;;5.00;4.25;;;16.40;99.90;;;;;;5108645;28;20030;-68
2023/09/24 06:44:50;;;;;;;6.47;3.70;;;16.50;99.90;;;;;;5108057;28;20081;-68
2023/09/24 06:47:16;;;;;;;8.13;3.42;;;16.50;99.90;;;;;;5107824;27;20077;-68
2023/09/24 06:49:42;;;;;;;4.78;3.10;;;16.50;99.90;;;;;;5105524;28;20055;-69
2023/09/24 06:52:08;;;;;;;3.85;2.70;;;16.50;99.90;;;;;;5107882;28;20034;-68
2023/09/24 06:54:34;;;;;;;5.32;3.20;;;16.50;99.90;;;;;;5108069;28;20027;-68
2023/09/24 06:57:00;;;;;;;4.32;2.90;;;16.60;99.90;;;;;;5102900;28;20034;-69
2023/09/24 06:59:26;;;;;;;2.70;2.45;;;16.70;99.90;;;;;;5108215;28;20490;-68
2023/09/24 07:01:53;;;;;;;5.35;3.28;;;16.80;99.90;;;;;;5104748;28;20034;-68
2023/09/24 07:04:19;;;;;;;5.32;3.33;;;16.80;99.90;;;;;;5107877;28;20031;-68
2023/09/24 07:06:45;;;;;;;5.55;3.28;;;16.80;99.70;;;;;;5095466;28;20028;-67
2023/09/24 07:09:10;;;;;;;3.92;3.03;;;16.80;99.60;;;;;;5107998;28;20159;-68
2023/09/24 07:11:38;;;;;;;6.65;3.58;;;16.80;99.70;;;;;;5102125;27;20038;-68
2023/09/24 07:14:07;;;;;;;7.55;3.40;;;16.80;99.70;;;;;;5098555;28;20043;-69
2023/09/24 07:16:34;;;;;;;5.00;2.97;;;16.90;99.70;;;;;;5105383;28;20022;-69
2023/09/24 07:19:01;;;;;;;5.28;2.83;;;16.90;99.80;;;;;;5099425;28;20043;-68
2023/09/24 07:21:28;;;;;;;4.03;2.97;;;17.00;99.50;;;;;;5102961;28;20479;-69
2023/09/24 07:23:58;;;;;;;4.38;2.95;;;17.00;99.50;;;;;;5107345;28;20031;-68
2023/09/24 07:26:25;;;;;;;3.22;2.85;;;17.00;99.70;;;;;;5106101;28;20020;-69
2023/09/24 07:28:52;;;;;;;7.40;3.10;;;17.10;99.90;;;;;;5106522;28;20486;-68
2023/09/24 07:31:21;;;;;;;4.95;3.10;;;17.30;99.30;;;;;;5107634;28;20031;-68
2023/09/24 07:33:52;;;;;;;5.35;2.88;;;17.40;99.00;;;;;;5102180;28;20592;-68
2023/09/24 07:36:18;;;;;;;3.22;2.67;;;17.50;98.70;;;;;;5105814;28;20086;-69
2023/09/24 07:38:45;;;;;;;3.40;3.00;;;17.60;98.40;;;;;;5104062;28;20028;-69
2023/09/24 07:41:11;;;;;;;4.70;2.50;;;17.70;98.00;;;;;;5103774;28;20463;-68
2023/09/24 07:43:38;;;;;;;7.68;3.22;;;17.70;98.00;;;;;;5101570;28;20427;-69
2023/09/24 07:46:06;;;;;;;6.55;2.88;;;17.70;98.10;;;;;;5104802;28;20027;-69
2023/09/24 07:48:32;;;;;;;4.90;2.75;;;17.70;98.10;;;;;;5105698;28;20115;-68
2023/09/24 07:50:59;;;;;;;3.83;2.50;;;17.70;98.40;;;;;;5104664;28;20032;-69
2023/09/24 07:53:25;;;;;;;4.65;2.72;;;17.70;97.80;;;;;;5106440;28;20027;-68
2023/09/24 07:55:57;;;;;;;2.97;2.30;;;17.60;97.90;;;;;;5105591;28;20688;-69
2023/09/24 07:58:24;;;;;;;3.50;3.00;;;17.50;98.20;;;;;;5102381;28;20066;-69
2023/09/24 08:00:52;;;;;;;5.47;2.25;;;17.50;98.30;;;;;;5106272;28;20039;-68
2023/09/24 08:03:18;;;;;;;4.13;2.30;;;17.50;98.70;;;;;;5106757;28;20081;-69
2023/09/24 08:05:44;;;;;;;7.10;3.00;;;17.60;98.80;;;;;;5104642;28;20119;-69
2023/09/24 08:08:10;;;;;;;5.15;2.55;;;17.80;98.30;;;;;;5102548;28;20425;-68
2023/09/24 08:10:36;;;;;;;5.38;3.10;;;17.90;98.20;;;;;;5106416;28;20036;-69
2023/09/24 08:13:03;;;;;;;7.85;3.17;;;18.00;98.30;;;;;;5106654;28;20500;-69
2023/09/24 08:15:29;;;;;;;5.97;2.80;;;18.00;97.80;;;;;;5106353;28;20453;-69
2023/09/24 08:17:55;;;;;;;5.75;3.00;;;18.00;97.90;;;;;;5106336;28;20543;-68
2023/09/24 08:20:20;;;;;;;8.75;2.88;;;18.00;97.90;;;;;;5106580;28;20028;-68
2023/09/24 08:22:46;;;;;;;7.63;2.25;;;18.00;97.70;;;;;;5101695;28;20048;-69
2023/09/24 08:25:12;;;;;;;3.03;2.20;;;18.10;98.00;;;;;;5106058;28;20752;-68
2023/09/24 08:27:37;;;;;;;3.55;2.45;;;18.10;97.40;;;;;;5106247;28;20028;-69
2023/09/24 08:30:04;;;;;;;5.43;2.22;;;18.20;96.90;;;;;;5105785;28;20110;-69
2023/09/24 08:32:30;;;;;;;4.43;2.58;;;18.10;96.90;;;;;;5104698;28;20139;-69
2023/09/24 08:34:56;;;;;;;3.45;2.40;;;18.10;97.10;;;;;;5105672;28;20042;-68
2023/09/24 08:37:22;;;;;;;5.40;2.28;;;18.10;97.20;;;;;;5106168;28;20019;-68
2023/09/24 08:39:47;;;;;;;3.38;2.03;;;18.10;97.30;;;;;;5105580;28;20479;-69
2023/09/24 08:42:19;;;;;;;5.22;2.10;;;18.20;96.80;;;;;;5098889;28;20118;-69
2023/09/24 08:44:51;;;;;;;4.75;1.75;;;18.20;96.80;;;;;;5105747;28;20035;-69
2023/09/24 08:47:17;;;;;;;4.18;2.00;;;18.20;96.70;;;;;;5099609;28;20395;-69
2023/09/24 08:49:45;;;;;;;4.68;2.42;;;18.30;96.40;;;;;;5105860;28;20035;-69
2023/09/24 08:52:12;;;;;;;4.57;2.10;;;18.50;96.70;;;;;;5105545;28;20027;-69
2023/09/24 08:54:38;;;;;;;5.25;2.30;;;18.70;96.40;;;;;;5101511;28;20074;-69
2023/09/24 08:57:04;;;;;;;4.97;2.78;;;19.10;96.30;;;;;;5105590;28;20059;-69
2023/09/24 08:59:30;;;;;;;6.82;2.22;;;19.50;95.00;;;;;;5105940;28;20081;-69
2023/09/24 09:01:56;;;;;;;5.57;2.30;;;19.80;94.50;;;;;;5105810;28;20031;-69
2023/09/24 09:04:22;;;;;;;4.25;2.10;;;20.10;94.00;;;;;;5101076;28;20070;-69
2023/09/24 09:06:48;;;;;;;5.00;1.98;;;20.40;93.50;;;;;;5100934;28;20048;-68
2023/09/24 09:09:26;;;;;;;5.10;1.67;;;20.40;93.30;;;;;;5102000;28;20049;-69
2023/09/24 09:11:52;;;;;;;3.90;2.22;;;20.40;93.80;;;;;;5105034;28;20035;-68
2023/09/24 09:14:34;;;;;;;5.20;1.90;;;20.40;93.40;;;;;;5099178;28;20092;-69
2023/09/24 09:16:59;;;;;;;4.88;2.10;;;20.20;93.40;;;;;;5104759;28;20032;-68
2023/09/24 09:19:30;;;;;;;4.00;1.90;;;20.00;93.50;;;;;;5105316;28;20024;-69
2023/09/24 09:21:56;;;;;;;5.15;2.17;;;19.90;94.20;;;;;;5105032;28;20032;-69
2023/09/24 09:24:23;;;;;;;4.72;1.92;;;19.80;93.90;;;;;;5101194;28;20042;-69
2023/09/24 09:26:57;;;;;;;3.33;1.70;;;19.80;93.90;;;;;;5102294;28;20024;-69
2023/09/24 09:29:24;;;;;;;2.38;1.65;;;19.70;93.70;;;;;;5101670;28;20024;-69
2023/09/24 09:31:50;;;;;;;3.97;1.38;;;19.60;93.60;;;;;;5105189;28;20078;-69
2023/09/24 09:34:17;;;;;;;2.22;1.75;;;19.50;93.60;;;;;;5105224;28;20402;-69
2023/09/24 09:36:43;;;;;;;2.55;1.40;;;19.60;94.20;;;;;;5101917;28;20024;-68
2023/09/24 09:39:09;;;;;;;2.78;1.50;;;19.60;94.50;;;;;;5105431;28;20028;-69
2023/09/24 09:41:36;;;;;;;4.05;1.52;;;19.70;93.90;;;;;;5105413;28;20104;-69
2023/09/24 09:44:05;;;;;;;6.30;1.98;;;19.80;94.40;;;;;;5095835;28;20035;-68
2023/09/24 09:46:36;;;;;;;3.55;1.63;;;19.90;93.60;;;;;;5101981;28;20035;-69
2023/09/24 09:49:05;;;;;;;3.63;1.40;;;20.00;94.00;;;;;;5103954;28;20394;-69
2023/09/24 09:51:52;;;;;;;3.80;1.17;;;20.10;94.00;;;;;;5105193;28;20042;-70
2023/09/24 09:54:19;;;;;;;;;;;20.20;93.40;;;;;;5102861;28;20035;-69
2023/09/24 09:56:45;;;;;;;3.50;1.10;;;20.30;92.20;;;;;;5103068;28;20030;-69
2023/09/24 09:59:10;;;;;;;3.47;1.30;;;20.20;92.50;;;;;;5104416;28;20644;-69
2023/09/24 10:01:36;;;;;;;4.07;1.08;;;20.10;92.20;;;;;;5104500;28;20036;-69
2023/09/24 10:04:07;;;;;;;2.42;0.90;;;20.00;92.40;;;;;;5101120;28;20027;-68
2023/09/24 10:06:35;;;;;;;3.92;1.52;;;20.00;92.20;;;;;;5103203;28;20055;-69
2023/09/24 10:09:01;;;;;;;1.63;0.98;;;20.10;92.10;;;;;;5096794;28;20020;-69
2023/09/24 10:11:30;;;;;;;2.60;1.10;;;20.10;91.30;;;;;;5105123;28;20035;-69
2023/09/24 10:13:57;;;;;;;3.08;1.02;;;20.30;91.70;;;;;;5100769;28;20078;-69
2023/09/24 10:16:44;;;;;;;2.03;1.05;;;20.90;91.50;;;;;;5103085;28;20039;-69
2023/09/24 10:19:13;;;;;;;4.07;1.02;;;21.50;89.90;;;;;;5096761;28;20032;-69
2023/09/24 10:21:43;;;;;;;2.38;1.02;;;21.80;87.80;;;;;;5104826;28;20039;-68
2023/09/24 10:24:12;;;;;;;5.65;1.00;;;21.90;88.00;;;;;;5104434;28;20036;-69
2023/09/24 10:27:11;;;;;;;4.53;1.00;;;22.20;86.10;;;;;;5104655;28;20088;-69
2023/09/24 10:29:57;;;;;;;2.67;1.08;;;23.30;82.10;;;;;;5076714;28;20439;-69
2023/09/24 10:32:25;;;;;;;2.83;1.15;;;24.70;77.10;;;;;;5094144;27;20187;-69
2023/09/24 10:34:51;;;;;;;1.58;0.82;;;25.30;73.20;;;;;;5104366;28;20130;-69
2023/09/24 10:37:18;;;;;;;2.53;0.88;;;25.00;72.80;;;;;;5104630;28;20168;-69
2023/09/24 10:40:05;;;;;;;4.82;1.20;;;24.30;73.80;;;;;;5104932;28;20035;-69
2023/09/24 10:43:09;;;;;;;3.38;1.00;;;23.80;77.20;;;;;;5100278;28;20538;-69
2023/09/24 10:45:35;;;;;;;4.18;0.95;;;23.50;74.60;;;;;;5097025;28;20028;-69
2023/09/24 10:48:03;;;;;;;2.13;1.10;;;23.20;78.20;;;;;;5104631;28;20024;-69
2023/09/24 10:50:29;;;;;;;2.50;0.90;;;22.90;77.40;;;;;;5104337;28;20043;-69
2023/09/24 10:52:58;;;;;;;3.63;0.90;;;22.70;79.40;;;;;;5103629;28;20031;-69
2023/09/24 10:55:29;;;;;;;4.25;0.75;;;22.60;80.20;;;;;;5097788;28;20721;-68
2023/09/24 10:57:57;;;;;;;2.05;0.85;;;22.60;79.00;;;;;;5107178;28;20063;-69
2023/09/24 11:00:25;;;;;;;2.83;1.02;;;22.50;78.30;;;;;;5108407;28;20020;-69
2023/09/24 11:02:55;;;;;;;2.70;0.80;;;22.40;75.10;;;;;;5107835;28;20035;-69
2023/09/24 11:05:21;;;;;;;3.10;0.82;;;22.30;76.60;;;;;;5108326;28;20051;-69
2023/09/24 11:07:46;;;;;;;2.42;0.98;;;22.20;78.80;;;;;;5107720;28;20832;-69
2023/09/24 11:10:18;;;;;;;5.60;1.10;;;22.10;80.00;;;;;;5107916;28;20034;-69
2023/09/24 11:12:56;;;;;;;2.95;0.90;;;22.10;80.40;;;;;;5105909;28;20171;-68
2023/09/24 11:15:23;;;;;;;2.15;1.05;;;22.10;80.20;;;;;;5101747;28;20475;-69
2023/09/24 11:17:50;;;;;;;1.65;0.75;;;22.10;81.80;;;;;;5107723;28;20403;-68
2023/09/24 11:20:20;;;;;;;3.53;1.00;;;22.10;78.70;;;;;;5103672;27;21725;-69
2023/09/24 11:22:56;;;;;;;2.03;0.75;;;22.10;80.90;;;;;;5104867;28;20485;-68
2023/09/24 11:25:22;;;;;;;2.78;0.80;;;22.00;80.20;;;;;;5105926;28;20127;-68
2023/09/24 11:27:53;;;;;;;1.52;0.63;;;22.00;79.50;;;;;;5106486;28;20055;-69
2023/09/24 11:30:21;;;;;;;1.70;0.57;;;22.00;79.60;;;;;;5104018;28;20047;-68
2023/09/24 11:32:49;;;;;;;0.95;0.75;;;22.00;79.30;;;;;;5107369;28;20395;-70
2023/09/24 11:35:17;;;;;;;2.33;0.52;;;22.00;79.10;;;;;;5107146;28;20471;-69
2023/09/24 11:37:52;;;;;;;2.33;0.88;;;21.90;77.30;;;;;;5105052;28;20066;-69
2023/09/24 11:40:25;;;;;;;1.58;0.60;;;21.90;76.00;;;;;;5107571;28;20050;-70
2023/09/24 11:42:55;;;;;;;1.55;0.60;;;21.60;77.40;;;;;;5107127;28;20044;-68
2023/09/24 11:45:44;;;;;;;1.30;0.73;;;21.60;77.20;;;;;;5107434;28;20368;-69
2023/09/24 11:48:15;;;;;;;2.42;0.55;;;21.60;76.00;;;;;;5102688;28;20440;-69
2023/09/24 11:50:47;;;;;;;4.25;0.95;;;21.40;76.50;;;;;;5103308;28;20088;-69
2023/09/24 11:53:13;;;;;;;1.98;0.90;;;21.30;76.60;;;;;;5104564;28;20030;-68
2023/09/24 11:55:41;;;;;;;2.67;0.82;;;21.30;77.50;;;;;;5106706;28;20041;-68
2023/09/24 11:58:07;;;;;;;2.53;0.70;;;21.20;78.80;;;;;;5106757;28;20027;-69
2023/09/24 12:00:35;;;;;;;3.03;0.90;;;21.20;75.60;;;;;;5107024;28;20036;-69
2023/09/24 12:03:01;;;;;;;0.57;0.40;;;21.20;76.80;;;;;;5106541;27;20024;-69
2023/09/24 12:05:28;;;;;;;1.92;0.90;;;21.20;76.30;;;;;;5106753;27;20085;-69
2023/09/24 12:07:54;;;;;;;1.65;0.88;;;21.30;78.00;;;;;;5105701;28;20028;-69
2023/09/24 12:10:21;;;;;;;1.85;0.50;;;21.30;76.10;;;;;;5106964;28;20028;-69
2023/09/24 12:12:48;;;;;;;1.35;0.60;;;21.40;74.70;;;;;;5106818;28;20046;-69
2023/09/24 12:15:14;;;;;;;2.35;0.40;;;21.50;75.70;;;;;;5106611;28;20023;-69
2023/09/24 12:17:41;;;;;;;1.60;0.57;;;21.60;73.60;;;;;;5105659;28;20478;-69
2023/09/24 12:20:08;;;;;;;2.22;0.60;;;21.70;74.10;;;;;;5106452;28;20031;-69
2023/09/24 12:22:35;;;;;;;2.28;0.65;;;21.80;73.30;;;;;;5106622;28;20055;-69
2023/09/24 12:25:01;;;;;;;1.52;0.57;;;21.80;72.80;;;;;;5106296;28;20027;-69
2023/09/24 12:27:29;;;;;;;0.75;0.50;;;21.90;73.10;;;;;;5105846;28;20031;-69
2023/09/24 12:29:55;;;;;;;2.17;0.57;;;22.00;72.00;;;;;;5106377;28;20028;-69
2023/09/24 12:32:21;;;;;;;0.90;0.70;;;22.00;72.00;;;;;;5105613;28;20028;-69
2023/09/24 12:34:47;;;;;;;2.20;0.73;;;22.00;73.10;;;;;;5104209;28;20107;-69
2023/09/24 12:37:12;;;;;;;1.75;0.57;;;22.10;75.20;;;;;;5104766;28;20043;-69
2023/09/24 12:39:38;;;;;;;1.95;0.70;;;22.10;75.10;;;;;;5105813;28;20119;-69
2023/09/24 12:42:04;;;;;;;3.25;0.90;;;22.10;73.80;;;;;;5105900;28;20625;-69
2023/09/24 12:44:30;;;;;;;4.10;0.68;;;22.20;74.80;;;;;;5105706;28;20026;-68
2023/09/24 12:46:56;;;;;;;1.15;0.40;;;22.20;75.20;;;;;;5105799;28;20724;-69
2023/09/24 12:49:21;;;;;;;4.97;0.88;;;22.20;74.20;;;;;;5106093;28;20050;-69
2023/09/24 12:51:47;;;;;;;2.33;0.88;;;22.20;72.90;;;;;;5105802;28;20031;-69